createdAt,value
2022-09-09T00:00:28.850Z,73.86
2022-09-09T00:05:39.448Z,73.62
2022-09-09T00:10:42.702Z,73.74
2022-09-09T00:15:54.161Z,73.58
2022-09-09T00:21:07.008Z,73.77
2022-09-09T00:26:29.882Z,74.08
2022-09-09T00:31:32.287Z,74.37
2022-09-09T00:36:35.410Z,74.46
2022-09-09T00:41:39.889Z,74.18
2022-09-09T00:46:48.486Z,73.71
2022-09-09T00:52:05.495Z,73.35
2022-09-09T00:57:14.809Z,73.21
2022-09-09T01:02:26.607Z,73.26
2022-09-09T01:07:28.361Z,73.21
2022-09-09T01:12:42.653Z,73.65
2022-09-09T01:17:49.778Z,73.83
2022-09-09T01:23:04.907Z,74.13
2022-09-09T01:28:11.152Z,74.17
2022-09-09T01:33:17.253Z,74.00
2022-09-09T01:38:18.886Z,74.09
2022-09-09T01:43:26.307Z,73.89
2022-09-09T01:48:28.295Z,73.76
2022-09-09T01:53:40.163Z,73.47
2022-09-09T01:58:45.103Z,73.24
2022-09-09T02:03:52.807Z,73.20
2022-09-09T02:09:00.523Z,73.06
2022-09-09T02:14:03.943Z,72.91
2022-09-09T02:19:18.028Z,73.03
2022-09-09T02:24:35.035Z,72.89
2022-09-09T02:29:57.711Z,73.03
2022-09-09T02:35:12.717Z,73.29
2022-09-09T02:40:18.483Z,73.10
2022-09-09T02:45:32.987Z,72.96
2022-09-09T02:50:35.907Z,72.78
2022-09-09T02:55:51.721Z,72.95
2022-09-09T03:00:58.301Z,72.75
2022-09-09T03:06:01.803Z,72.83
2022-09-09T03:11:03.950Z,72.71
2022-09-09T03:16:08.586Z,72.77
2022-09-09T03:21:16.393Z,72.81
2022-09-09T03:26:18.734Z,72.62
2022-09-09T03:31:22.115Z,72.51
2022-09-09T03:36:23.675Z,72.58
2022-09-09T03:41:25.860Z,72.76
2022-09-09T03:46:27.739Z,72.85
2022-09-09T03:51:29.779Z,72.80
2022-09-09T03:56:32.669Z,73.10
2022-09-09T04:01:35.081Z,73.06
2022-09-09T04:06:36.993Z,73.04
2022-09-09T04:11:38.601Z,73.20
2022-09-09T04:16:40.135Z,73.34
2022-09-09T04:21:43.071Z,73.43
2022-09-09T04:26:44.701Z,73.84
2022-09-09T04:31:46.223Z,74.14
2022-09-09T04:36:50.099Z,74.34
2022-09-09T04:41:51.527Z,74.23
2022-09-09T04:46:54.148Z,74.23
2022-09-09T04:51:56.493Z,74.18
2022-09-09T04:56:57.960Z,74.28
2022-09-09T05:02:00.106Z,74.57
2022-09-09T05:07:01.539Z,74.20
2022-09-09T05:12:03.785Z,74.13
2022-09-09T05:17:09.357Z,74.32
2022-09-09T05:22:13.213Z,74.19
2022-09-09T05:27:23.409Z,74.41
2022-09-09T05:32:25.490Z,74.43
2022-09-09T05:37:27.400Z,74.56
2022-09-09T05:42:33.419Z,74.69
2022-09-09T05:47:36.530Z,74.93
2022-09-09T05:52:38.095Z,74.80
2022-09-09T05:57:40.798Z,74.81
2022-09-09T06:02:43.028Z,75.02
2022-09-09T06:07:47.969Z,75.21
2022-09-09T06:12:49.728Z,75.30
2022-09-09T06:17:55.154Z,74.50
2022-09-09T06:22:56.569Z,74.59
2022-09-09T06:27:58.626Z,75.09
2022-09-09T06:33:00.255Z,75.19
2022-09-09T06:38:02.323Z,75.57
2022-09-09T06:43:03.919Z,75.73
2022-09-09T06:48:13.857Z,76.05
2022-09-09T06:53:17.510Z,76.42
2022-09-09T06:58:19.584Z,76.67
2022-09-09T07:03:21.071Z,76.63
2022-09-09T07:08:23.131Z,76.62
2022-09-09T07:13:28.121Z,76.35
2022-09-09T07:18:31.397Z,76.70
2022-09-09T07:23:36.326Z,76.94
2022-09-09T07:28:39.085Z,76.98
2022-09-09T07:33:41.794Z,77.12
2022-09-09T07:38:48.528Z,77.19
2022-09-09T07:43:50.815Z,76.88
2022-09-09T07:48:53.788Z,76.36
2022-09-09T07:54:01.194Z,74.49
2022-09-09T07:59:05.165Z,73.50
2022-09-09T08:04:17.934Z,73.11
2022-09-09T08:09:21.483Z,72.88
2022-09-09T08:14:24.020Z,73.52
2022-09-09T08:19:25.675Z,73.87
2022-09-09T08:24:28.009Z,73.80
2022-09-09T08:29:29.551Z,73.26
2022-09-09T08:34:32.436Z,73.34
2022-09-09T08:39:37.923Z,73.59
2022-09-09T08:44:58.441Z,73.52
2022-09-09T08:50:03.041Z,73.56
2022-09-09T08:55:24.965Z,72.56
2022-09-09T09:00:35.615Z,72.08
2022-09-09T09:05:43.739Z,71.40
2022-09-09T09:10:48.241Z,70.83
2022-09-09T09:15:57.921Z,70.20
2022-09-09T09:21:05.078Z,70.88
2022-09-09T09:26:09.554Z,71.33
2022-09-09T09:31:11.819Z,71.64
2022-09-09T09:36:16.645Z,72.43
2022-09-09T09:41:30.182Z,73.07
2022-09-09T09:46:32.364Z,72.70
2022-09-09T09:51:42.213Z,73.36
2022-09-09T09:56:44.187Z,72.72
2022-09-09T10:01:46.112Z,72.46
2022-09-09T10:06:48.781Z,72.03
2022-09-09T10:11:56.813Z,71.88
2022-09-09T10:17:05.176Z,72.10
2022-09-09T10:22:16.376Z,71.51
2022-09-09T10:27:21.069Z,71.63
2022-09-09T10:32:40.279Z,72.17
2022-09-09T10:37:43.819Z,71.37
2022-09-09T10:42:45.150Z,72.14
2022-09-09T10:47:52.626Z,72.27
2022-09-09T10:53:00.496Z,73.02
2022-09-09T10:58:05.043Z,73.70
2022-09-09T11:03:08.232Z,72.89
2022-09-09T11:08:18.668Z,73.29
2022-09-09T11:13:23.380Z,73.24
2022-09-09T11:18:24.875Z,73.50
2022-09-09T11:23:30.219Z,73.06
2022-09-09T11:28:43.947Z,72.76
2022-09-09T11:33:45.472Z,71.76
2022-09-09T11:38:47.825Z,70.22
2022-09-09T11:43:52.985Z,70.12
2022-09-09T11:49:01.604Z,70.05
2022-09-09T11:54:21.949Z,70.35
2022-09-09T11:59:25.515Z,70.53
2022-09-09T12:04:26.785Z,69.22
2022-09-09T12:09:30.869Z,67.59
2022-09-09T12:14:37.303Z,66.96
2022-09-09T12:19:38.594Z,66.16
2022-09-09T12:25:03.236Z,65.25
2022-09-09T12:30:13.149Z,64.81
2022-09-09T12:35:20.403Z,64.38
2022-09-09T12:40:23.192Z,62.69
2022-09-09T12:45:29.539Z,61.32
2022-09-09T12:50:36.026Z,61.88
2022-09-09T12:55:38.825Z,60.88
2022-09-09T13:00:51.151Z,59.69
2022-09-09T13:05:54.171Z,59.41
2022-09-09T13:11:02.622Z,58.93
2022-09-09T13:16:06.496Z,58.95
2022-09-09T13:21:08.377Z,59.21
2022-09-09T13:26:24.054Z,57.33
2022-09-09T13:31:25.362Z,55.15
2022-09-09T13:36:35.216Z,56.51
2022-09-09T13:41:42.629Z,58.78
2022-09-09T13:46:44.438Z,58.05
2022-09-09T13:51:47.739Z,59.28
2022-09-09T13:56:50.540Z,59.37
2022-09-09T14:01:53.302Z,59.10
2022-09-09T14:06:55.608Z,60.63
2022-09-09T14:11:56.883Z,60.61
2022-09-09T14:16:58.442Z,60.83
2022-09-09T14:21:59.792Z,61.29
2022-09-09T14:27:01.090Z,61.79
2022-09-09T14:32:02.614Z,61.83
2022-09-09T14:37:03.930Z,60.99
2022-09-09T14:42:06.135Z,61.87
2022-09-09T14:47:08.962Z,60.66
2022-09-09T14:52:10.601Z,61.04
2022-09-09T14:57:11.944Z,61.34
2022-09-09T15:02:14.871Z,61.76
2022-09-09T15:07:17.469Z,60.16
2022-09-09T15:12:21.711Z,60.15
2022-09-09T15:17:23.007Z,60.29
2022-09-09T15:22:25.246Z,59.70
2022-09-09T15:27:26.608Z,59.12
2022-09-09T15:32:28.526Z,59.27
2022-09-09T15:37:29.808Z,58.61
2022-09-09T15:42:31.118Z,58.03
2022-09-09T15:47:33.083Z,59.38
2022-09-09T15:52:34.443Z,60.16
2022-09-09T15:57:35.721Z,60.45
2022-09-09T16:02:38.081Z,61.14
2022-09-09T16:07:39.956Z,60.52
2022-09-09T16:12:41.273Z,61.26
2022-09-09T16:17:42.561Z,61.33
2022-09-09T16:22:44.259Z,61.74
2022-09-09T16:27:45.539Z,62.46
2022-09-09T16:32:46.844Z,62.66
2022-09-09T16:37:48.114Z,62.06
2022-09-09T16:42:49.393Z,61.24
2022-09-09T16:47:50.673Z,61.36
2022-09-09T16:52:52.375Z,62.29
2022-09-09T16:57:55.810Z,62.15
2022-09-09T17:02:57.175Z,60.76
2022-09-09T17:07:58.601Z,58.96
2022-09-09T17:12:59.876Z,58.45
2022-09-09T17:18:01.145Z,57.91
2022-09-09T17:23:02.665Z,57.70
2022-09-09T17:28:07.191Z,57.98
2022-09-09T17:33:08.479Z,58.78
2022-09-09T17:38:09.748Z,59.32
2022-09-09T17:43:11.349Z,59.61
2022-09-09T17:48:12.647Z,60.13
2022-09-09T17:53:13.975Z,60.64
2022-09-09T17:58:16.497Z,61.29
2022-09-09T18:03:17.905Z,61.59
2022-09-09T18:08:19.476Z,61.55
2022-09-09T18:13:20.869Z,62.30
2022-09-09T18:18:22.686Z,63.16
2022-09-09T18:23:24.202Z,63.99
2022-09-09T18:28:28.532Z,64.40
2022-09-09T18:33:30.930Z,64.88
2022-09-09T18:38:33.989Z,65.31
2022-09-09T18:43:35.424Z,65.75
2022-09-09T18:48:37.386Z,66.09
2022-09-09T18:53:39.370Z,66.34
2022-09-09T18:58:40.859Z,66.73
2022-09-09T19:03:42.604Z,66.94
2022-09-09T19:08:44.614Z,66.92
2022-09-09T19:13:53.057Z,67.01
2022-09-09T19:18:55.088Z,67.16
2022-09-09T19:24:01.016Z,67.46
2022-09-09T19:29:02.627Z,67.66
2022-09-09T19:34:04.244Z,67.71
2022-09-09T19:39:06.242Z,67.84
2022-09-09T19:44:11.833Z,67.94
2022-09-09T19:49:15.063Z,68.28
2022-09-09T19:54:16.453Z,68.10
2022-09-09T19:59:18.067Z,67.93
2022-09-09T20:04:19.540Z,68.01
2022-09-09T20:09:21.330Z,68.00
2022-09-09T20:14:22.599Z,68.02
2022-09-09T20:19:24.062Z,68.13
2022-09-09T20:24:26.103Z,68.34
2022-09-09T20:29:27.412Z,68.70
2022-09-09T20:34:29.878Z,68.46
2022-09-09T20:39:31.597Z,68.68
2022-09-09T20:44:33.278Z,68.95
2022-09-09T20:49:37.784Z,69.11
2022-09-09T20:54:40.509Z,69.23
2022-09-09T20:59:43.228Z,69.48
2022-09-09T21:04:47.516Z,69.45
2022-09-09T21:09:48.784Z,69.55
2022-09-09T21:14:51.530Z,69.60
2022-09-09T21:19:56.378Z,69.71
2022-09-09T21:24:58.810Z,70.02
2022-09-09T21:30:00.110Z,70.22
2022-09-09T21:35:01.385Z,70.17
2022-09-09T21:40:02.966Z,70.43
2022-09-09T21:45:05.311Z,70.25
2022-09-09T21:50:06.673Z,70.36
2022-09-09T21:55:08.994Z,70.03
2022-09-09T22:00:18.188Z,70.14
2022-09-09T22:05:19.481Z,70.05
2022-09-09T22:10:21.525Z,70.15
2022-09-09T22:15:22.791Z,70.28
2022-09-09T22:20:24.965Z,70.10
2022-09-09T22:25:26.503Z,69.88
2022-09-09T22:30:28.549Z,69.74
2022-09-09T22:35:29.880Z,69.55
2022-09-09T22:40:31.184Z,69.30
2022-09-09T22:45:33.043Z,69.32
2022-09-09T22:50:37.891Z,69.39
2022-09-09T22:55:54.294Z,69.26
2022-09-09T23:00:59.072Z,68.97
2022-09-09T23:06:01.245Z,68.86
2022-09-09T23:11:08.876Z,68.70
2022-09-09T23:16:11.262Z,68.29
2022-09-09T23:21:13.224Z,68.13
2022-09-09T23:26:19.006Z,68.73
2022-09-09T23:31:22.809Z,68.85
2022-09-09T23:36:29.528Z,69.13
2022-09-09T23:41:31.409Z,69.19
2022-09-09T23:46:33.432Z,68.51
2022-09-09T23:51:35.352Z,68.45
2022-09-09T23:56:41.187Z,68.33
